createdAt,value
2022-08-25T00:02:13.457Z,101735.75
2022-08-25T00:04:40.517Z,101734.13
2022-08-25T00:07:09.325Z,101735.06
2022-08-25T00:09:36.081Z,101731.50
2022-08-25T00:12:03.964Z,101730.63
2022-08-25T00:14:34.465Z,101727.25
2022-08-25T00:17:01.873Z,101724.72
2022-08-25T00:19:32.254Z,101718.59
2022-08-25T00:22:00.913Z,101715.81
2022-08-25T00:24:28.553Z,101715.91
2022-08-25T00:26:56.791Z,101718.88
2022-08-25T00:29:26.009Z,101707.34
2022-08-25T00:31:55.070Z,101714.63
2022-08-25T00:34:25.757Z,101718.34
2022-08-25T00:36:53.313Z,101707.66
2022-08-25T00:39:21.582Z,101712.31
2022-08-25T00:41:50.077Z,101710.69
2022-08-25T00:44:20.311Z,101710.88
2022-08-25T00:46:50.144Z,101708.25
2022-08-25T00:49:26.139Z,101701.19
2022-08-25T00:52:00.269Z,101707.63
2022-08-25T00:54:30.204Z,101712.06
2022-08-25T00:56:58.813Z,101718.66
2022-08-25T00:59:26.576Z,101714.09
2022-08-25T01:01:54.879Z,101718.72
2022-08-25T01:04:21.822Z,101718.81
2022-08-25T01:06:49.083Z,101716.34
2022-08-25T01:09:16.087Z,101726.50
2022-08-25T01:11:44.689Z,101722.06
2022-08-25T01:14:14.612Z,101717.59
2022-08-25T01:16:43.677Z,101728.44
2022-08-25T01:19:15.205Z,101727.75
2022-08-25T01:21:48.541Z,101720.47
2022-08-25T01:24:26.552Z,101720.00
2022-08-25T01:26:53.284Z,101719.31
2022-08-25T01:29:25.442Z,101731.06
2022-08-25T01:32:01.163Z,101721.25
2022-08-25T01:34:30.380Z,101720.50
2022-08-25T01:36:59.156Z,101716.91
2022-08-25T01:39:27.833Z,101720.78
2022-08-25T01:42:06.612Z,101720.78
2022-08-25T01:44:36.073Z,101720.09
2022-08-25T01:47:04.673Z,101718.25
2022-08-25T01:49:31.423Z,101715.69
2022-08-25T01:52:06.729Z,101716.84
2022-08-25T01:54:33.616Z,101714.22
2022-08-25T01:57:00.397Z,101708.72
2022-08-25T01:59:27.807Z,101715.28
2022-08-25T02:01:58.670Z,101711.88
2022-08-25T02:04:29.606Z,101712.75
2022-08-25T02:06:56.362Z,101703.13
2022-08-25T02:09:23.315Z,101703.94
2022-08-25T02:11:51.008Z,101705.78
2022-08-25T02:14:20.016Z,101695.00
2022-08-25T02:16:49.836Z,101695.09
2022-08-25T02:19:17.949Z,101704.19
2022-08-25T02:21:45.021Z,101698.78
2022-08-25T02:24:12.543Z,101697.91
2022-08-25T02:26:39.400Z,101692.69
2022-08-25T02:29:07.612Z,101694.53
2022-08-25T02:31:34.583Z,101685.63
2022-08-25T02:34:02.446Z,101695.78
2022-08-25T02:36:30.119Z,101695.94
2022-08-25T02:38:56.797Z,101687.25
2022-08-25T02:41:31.117Z,101687.16
2022-08-25T02:43:59.340Z,101688.97
2022-08-25T02:46:26.291Z,101687.25
2022-08-25T02:48:53.439Z,101681.91
2022-08-25T02:51:22.145Z,101680.06
2022-08-25T02:53:49.321Z,101683.66
2022-08-25T02:56:18.378Z,101685.50
2022-08-25T02:58:46.128Z,101677.47
2022-08-25T03:01:14.240Z,101679.22
2022-08-25T03:03:43.805Z,101676.59
2022-08-25T03:06:12.741Z,101676.78
2022-08-25T03:08:40.376Z,101671.38
2022-08-25T03:11:07.121Z,101676.88
2022-08-25T03:13:34.165Z,101667.88
2022-08-25T03:16:01.700Z,101674.16
2022-08-25T03:18:30.322Z,101671.47
2022-08-25T03:20:58.337Z,101669.81
2022-08-25T03:23:25.376Z,101671.63
2022-08-25T03:26:16.187Z,101670.00
2022-08-25T03:28:42.952Z,101663.88
2022-08-25T03:31:10.456Z,101665.72
2022-08-25T03:33:38.475Z,101659.53
2022-08-25T03:36:06.616Z,101654.91
2022-08-25T03:38:33.370Z,101653.19
2022-08-25T03:41:00.083Z,101646.78
2022-08-25T03:43:26.824Z,101653.44
2022-08-25T03:45:53.608Z,101654.41
2022-08-25T03:48:20.381Z,101655.38
2022-08-25T03:50:50.670Z,101660.88
2022-08-25T03:53:19.751Z,101662.72
2022-08-25T03:55:46.638Z,101661.84
2022-08-25T03:58:13.509Z,101655.75
2022-08-25T04:00:41.034Z,101658.38
2022-08-25T04:03:08.113Z,101658.44
2022-08-25T04:05:35.485Z,101653.13
2022-08-25T04:08:02.494Z,101657.59
2022-08-25T04:10:31.329Z,101656.81
2022-08-25T04:12:58.378Z,101656.59
2022-08-25T04:15:28.714Z,101664.16
2022-08-25T04:17:58.997Z,101658.75
2022-08-25T04:20:26.056Z,101655.25
2022-08-25T04:22:52.837Z,101669.66
2022-08-25T04:25:19.836Z,101674.22
2022-08-25T04:27:46.620Z,101667.72
2022-08-25T04:30:13.811Z,101664.16
2022-08-25T04:32:40.720Z,101670.34
2022-08-25T04:35:07.759Z,101672.06
2022-08-25T04:37:34.807Z,101675.06
2022-08-25T04:40:01.683Z,101667.72
2022-08-25T04:42:28.639Z,101673.91
2022-08-25T04:44:55.937Z,101679.25
2022-08-25T04:47:22.903Z,101673.63
2022-08-25T04:49:49.922Z,101672.59
2022-08-25T04:52:16.641Z,101677.81
2022-08-25T04:54:43.902Z,101670.53
2022-08-25T04:57:10.825Z,101668.53
2022-08-25T04:59:37.943Z,101673.78
2022-08-25T05:02:06.767Z,101673.78
2022-08-25T05:04:35.377Z,101675.31
2022-08-25T05:07:02.991Z,101679.75
2022-08-25T05:09:32.480Z,101675.25
2022-08-25T05:12:04.097Z,101674.09
2022-08-25T05:14:31.992Z,101675.63
2022-08-25T05:16:58.746Z,101673.69
2022-08-25T05:19:26.625Z,101673.31
2022-08-25T05:21:54.151Z,101675.25
2022-08-25T05:24:21.705Z,101674.94
2022-08-25T05:26:49.446Z,101684.63
2022-08-25T05:29:16.576Z,101677.19
2022-08-25T05:31:49.548Z,101679.59
2022-08-25T05:34:18.503Z,101675.69
2022-08-25T05:36:45.327Z,101672.88
2022-08-25T05:39:12.128Z,101679.91
2022-08-25T05:41:39.260Z,101685.84
2022-08-25T05:44:06.388Z,101679.94
2022-08-25T05:46:33.353Z,101677.69
2022-08-25T05:49:00.070Z,101682.84
2022-08-25T05:51:27.253Z,101692.69
2022-08-25T05:53:54.311Z,101682.28
2022-08-25T05:56:21.295Z,101689.88
2022-08-25T05:58:49.021Z,101697.38
2022-08-25T06:01:43.511Z,101693.19
2022-08-25T06:04:12.779Z,101687.75
2022-08-25T06:06:40.114Z,101681.06
2022-08-25T06:09:08.873Z,101687.47
2022-08-25T06:11:37.537Z,101694.53
2022-08-25T06:14:04.918Z,101680.84
2022-08-25T06:16:31.852Z,101677.72
2022-08-25T06:18:58.869Z,101676.19
2022-08-25T06:21:25.693Z,101681.03
2022-08-25T06:23:52.836Z,101689.28
2022-08-25T06:26:21.281Z,101684.22
2022-08-25T06:28:49.242Z,101686.25
2022-08-25T06:31:16.035Z,101688.94
2022-08-25T06:33:43.348Z,101697.84
2022-08-25T06:36:10.429Z,101690.81
2022-08-25T06:38:37.232Z,101697.50
2022-08-25T06:41:08.101Z,101704.56
2022-08-25T06:43:35.323Z,101711.81
2022-08-25T06:46:12.980Z,101702.81
2022-08-25T06:48:40.185Z,101704.78
2022-08-25T06:51:08.422Z,101703.97
2022-08-25T06:53:37.441Z,101715.63
2022-08-25T06:56:06.722Z,101702.69
2022-08-25T06:58:34.053Z,101707.41
2022-08-25T07:01:20.033Z,101715.19
2022-08-25T07:03:48.140Z,101721.19
2022-08-25T07:06:16.588Z,101712.59
2022-08-25T07:08:45.732Z,101705.78
2022-08-25T07:11:14.584Z,101707.38
2022-08-25T07:13:43.779Z,101696.34
2022-08-25T07:16:11.522Z,101697.38
2022-08-25T07:18:38.402Z,101680.81
2022-08-25T07:21:05.379Z,101687.00
2022-08-25T07:23:35.882Z,101682.34
2022-08-25T07:29:02.422Z,101691.81
2022-08-25T07:31:30.392Z,101687.34
2022-08-25T07:34:16.567Z,101685.38
2022-08-25T07:36:44.068Z,101686.63
2022-08-25T07:39:11.128Z,101690.47
2022-08-25T07:41:40.483Z,101688.28
2022-08-25T07:44:07.956Z,101679.72
2022-08-25T07:46:34.862Z,101692.75
2022-08-25T07:49:02.023Z,101688.75
2022-08-25T07:51:29.023Z,101694.19
2022-08-25T07:53:56.022Z,101686.31
2022-08-25T07:56:23.527Z,101689.06
2022-08-25T07:58:51.209Z,101684.38
2022-08-25T08:01:23.208Z,101682.53
2022-08-25T08:03:51.542Z,101688.06
2022-08-25T08:06:22.468Z,101689.78
2022-08-25T08:08:50.575Z,101686.53
2022-08-25T08:11:22.918Z,101687.00
2022-08-25T08:13:51.979Z,101678.31
2022-08-25T08:16:19.726Z,101688.94
2022-08-25T08:18:47.068Z,101684.34
2022-08-25T08:21:19.903Z,101691.09
2022-08-25T08:23:49.290Z,101683.03
2022-08-25T08:26:17.000Z,101678.78
2022-08-25T08:28:51.941Z,101678.28
2022-08-25T08:31:21.373Z,101674.34
2022-08-25T08:33:49.458Z,101675.09
2022-08-25T08:36:17.213Z,101666.13
2022-08-25T08:38:45.256Z,101667.91
2022-08-25T08:42:11.238Z,101663.91
2022-08-25T08:44:45.018Z,101658.00
2022-08-25T08:47:11.686Z,101660.94
2022-08-25T08:49:53.140Z,101663.00
2022-08-25T08:52:23.148Z,101652.25
2022-08-25T08:54:58.637Z,101663.19
2022-08-25T08:57:27.393Z,101657.97
2022-08-25T09:00:02.519Z,101652.88
2022-08-25T09:02:51.607Z,101654.75
2022-08-25T09:05:21.202Z,101651.16
2022-08-25T09:07:57.287Z,101641.97
2022-08-25T09:10:26.984Z,101635.44
2022-08-25T09:12:55.100Z,101636.81
2022-08-25T09:15:48.045Z,101631.63
2022-08-25T09:18:27.601Z,101634.81
2022-08-25T09:21:30.444Z,101621.28
2022-08-25T09:24:26.762Z,101627.28
2022-08-25T09:27:18.636Z,101630.47
2022-08-25T09:30:19.531Z,101631.56
2022-08-25T09:33:03.932Z,101620.72
2022-08-25T09:35:35.034Z,101622.94
2022-08-25T09:38:09.556Z,101624.16
2022-08-25T09:40:45.352Z,101616.22
2022-08-25T09:43:22.605Z,101617.41
2022-08-25T09:45:58.531Z,101623.44
2022-08-25T09:48:40.668Z,101615.25
2022-08-25T09:51:38.148Z,101616.38
2022-08-25T09:54:12.766Z,101611.38
2022-08-25T09:56:57.235Z,101612.47
2022-08-25T09:59:36.026Z,101601.84
2022-08-25T10:02:06.776Z,101604.84
2022-08-25T10:04:37.235Z,101599.31
2022-08-25T10:07:19.745Z,101596.47
2022-08-25T10:10:02.035Z,101598.75
2022-08-25T10:12:37.841Z,101592.66
2022-08-25T10:15:37.536Z,101592.78
2022-08-25T10:18:25.764Z,101583.06
2022-08-25T10:21:08.152Z,101591.31
2022-08-25T10:23:41.546Z,101587.63
2022-08-25T10:26:13.958Z,101588.91
2022-08-25T10:28:47.516Z,101592.09
2022-08-25T10:31:32.964Z,101593.84
2022-08-25T10:34:36.049Z,101591.94
2022-08-25T10:37:12.965Z,101588.13
2022-08-25T10:40:04.031Z,101586.28
2022-08-25T10:42:39.556Z,101573.16
2022-08-25T10:45:40.760Z,101564.94
2022-08-25T10:48:41.985Z,101565.00
2022-08-25T10:51:27.687Z,101562.59
2022-08-25T10:54:06.538Z,101557.19
2022-08-25T10:56:41.550Z,101557.75
2022-08-25T10:59:22.481Z,101541.78
2022-08-25T11:02:13.649Z,101541.81
2022-08-25T11:04:45.287Z,101541.53
2022-08-25T11:07:31.088Z,101545.22
2022-08-25T11:10:03.757Z,101536.69
2022-08-25T11:12:35.161Z,101541.47
2022-08-25T11:16:16.612Z,101541.44
2022-08-25T11:18:57.628Z,101533.75
2022-08-25T11:21:34.887Z,101523.00
2022-08-25T11:24:11.125Z,101526.63
2022-08-25T11:26:38.207Z,101524.72
2022-08-25T11:29:16.706Z,101521.50
2022-08-25T11:31:53.917Z,101522.63
2022-08-25T11:34:21.770Z,101520.94
2022-08-25T11:37:11.544Z,101511.38
2022-08-25T11:39:53.574Z,101520.53
2022-08-25T11:42:35.536Z,101517.88
2022-08-25T11:45:22.419Z,101508.78
2022-08-25T11:48:22.370Z,101508.38
2022-08-25T11:50:59.798Z,101508.25
2022-08-25T11:53:45.213Z,101494.56
2022-08-25T11:56:35.144Z,101497.56
2022-08-25T11:59:02.073Z,101494.84
2022-08-25T12:01:40.985Z,101498.72
2022-08-25T12:04:42.255Z,101489.13
2022-08-25T12:07:15.035Z,101485.13
2022-08-25T12:09:53.948Z,101474.63
2022-08-25T12:12:36.524Z,101478.72
2022-08-25T12:15:22.259Z,101477.94
2022-08-25T12:18:13.463Z,101478.13
2022-08-25T12:20:58.631Z,101468.78
2022-08-25T12:23:45.083Z,101471.56
2022-08-25T12:26:34.591Z,101470.97
2022-08-25T12:29:10.657Z,101462.94
2022-08-25T12:32:04.936Z,101467.72
2022-08-25T12:35:07.474Z,101453.25
2022-08-25T12:37:35.470Z,101444.66
2022-08-25T12:40:05.295Z,101442.25
2022-08-25T12:42:40.221Z,101443.13
2022-08-25T12:45:25.544Z,101443.31
2022-08-25T12:47:54.440Z,101437.53
2022-08-25T12:50:35.037Z,101431.06
2022-08-25T12:53:24.614Z,101436.13
2022-08-25T12:56:01.066Z,101440.00
2022-08-25T12:58:58.945Z,101433.72
2022-08-25T13:02:07.424Z,101435.78
2022-08-25T13:05:03.565Z,101433.31
2022-08-25T13:07:36.869Z,101431.44
2022-08-25T13:10:11.949Z,101427.38
2022-08-25T13:13:04.431Z,101428.69
2022-08-25T13:15:41.056Z,101420.03
2022-08-25T13:18:23.629Z,101413.94
2022-08-25T13:21:03.483Z,101415.28
2022-08-25T13:23:31.743Z,101408.03
2022-08-25T13:25:58.639Z,101404.13
2022-08-25T13:28:30.761Z,101404.75
2022-08-25T13:31:03.538Z,101392.13
2022-08-25T13:33:31.033Z,101399.91
2022-08-25T13:36:17.911Z,101392.06
2022-08-25T13:38:46.825Z,101397.50
2022-08-25T13:41:29.166Z,101394.31
2022-08-25T13:44:00.852Z,101388.97
2022-08-25T13:46:28.763Z,101387.34
2022-08-25T13:49:06.353Z,101382.84
2022-08-25T13:51:33.096Z,101376.34
2022-08-25T13:54:06.369Z,101386.13
2022-08-25T13:56:38.834Z,101374.94
2022-08-25T13:59:23.646Z,101378.69
2022-08-25T14:01:54.383Z,101375.09
2022-08-25T14:04:25.197Z,101375.94
2022-08-25T14:07:12.124Z,101367.00
2022-08-25T14:09:55.234Z,101367.16
2022-08-25T14:12:35.841Z,101370.56
2022-08-25T14:15:11.048Z,101367.66
2022-08-25T14:17:40.869Z,101368.41
2022-08-25T14:20:19.286Z,101358.50
2022-08-25T14:22:46.423Z,101350.44
2022-08-25T14:25:13.523Z,101362.63
2022-08-25T14:30:36.681Z,101347.56
2022-08-25T14:33:04.523Z,101350.97
2022-08-25T14:35:31.896Z,101339.59
2022-08-25T14:37:59.043Z,101338.06
2022-08-25T14:40:26.315Z,101338.09
2022-08-25T14:42:57.733Z,101337.41
2022-08-25T14:45:24.898Z,101332.94
2022-08-25T14:47:51.790Z,101333.28
2022-08-25T14:50:20.843Z,101325.41
2022-08-25T14:52:51.975Z,101323.94
2022-08-25T14:55:31.206Z,101312.47
2022-08-25T14:57:59.903Z,101311.59
2022-08-25T15:00:26.908Z,101314.78
2022-08-25T15:02:55.011Z,101316.22
2022-08-25T15:05:27.085Z,101314.34
2022-08-25T15:08:14.378Z,101304.53
2022-08-25T15:10:42.135Z,101310.69
2022-08-25T15:13:10.887Z,101302.16
2022-08-25T15:15:52.679Z,101300.03
2022-08-25T15:18:20.975Z,101300.72
2022-08-25T15:20:49.875Z,101292.31
2022-08-25T15:23:18.717Z,101293.16
2022-08-25T15:25:46.895Z,101291.69
2022-08-25T15:28:17.226Z,101299.19
2022-08-25T15:30:45.678Z,101288.91
2022-08-25T15:33:15.721Z,101299.22
2022-08-25T15:35:43.505Z,101295.75
2022-08-25T15:38:12.106Z,101285.88
2022-08-25T15:40:39.928Z,101283.06
2022-08-25T15:43:10.225Z,101281.16
2022-08-25T15:45:37.805Z,101290.59
2022-08-25T15:48:09.360Z,101278.03
2022-08-25T15:50:36.620Z,101271.03
2022-08-25T15:53:03.723Z,101268.97
2022-08-25T15:55:39.570Z,101266.72
2022-08-25T15:58:07.064Z,101264.91
2022-08-25T16:00:35.944Z,101252.78
2022-08-25T16:03:04.760Z,101264.69
2022-08-25T16:05:37.308Z,101258.66
2022-08-25T16:08:04.369Z,101256.28
2022-08-25T16:10:38.384Z,101256.53
2022-08-25T16:13:05.665Z,101249.84
2022-08-25T16:15:32.666Z,101252.38
2022-08-25T16:18:01.174Z,101248.66
2022-08-25T16:20:29.385Z,101252.19
2022-08-25T16:22:56.204Z,101238.81
2022-08-25T16:25:22.974Z,101238.31
2022-08-25T16:27:49.868Z,101232.78
2022-08-25T16:30:17.675Z,101234.03
2022-08-25T16:32:45.084Z,101233.94
2022-08-25T16:35:13.133Z,101235.84
2022-08-25T16:37:40.942Z,101231.84
2022-08-25T16:40:13.507Z,101231.84
2022-08-25T16:42:41.784Z,101236.06
2022-08-25T16:45:09.238Z,101234.72
2022-08-25T16:47:38.278Z,101232.84
2022-08-25T16:50:09.280Z,101234.31
2022-08-25T16:52:56.203Z,101228.06
2022-08-25T16:55:25.697Z,101229.09
2022-08-25T16:57:56.312Z,101229.78
2022-08-25T17:00:28.791Z,101225.09
2022-08-25T17:02:59.511Z,101225.38
2022-08-25T17:05:29.554Z,101225.38
2022-08-25T17:08:25.568Z,101223.22
2022-08-25T17:10:52.551Z,101220.03
2022-08-25T17:13:19.394Z,101222.78
2022-08-25T17:15:48.791Z,101227.28
2022-08-25T17:18:19.287Z,101217.50
2022-08-25T17:20:48.776Z,101221.50
2022-08-25T17:23:18.087Z,101232.75
2022-08-25T17:25:50.056Z,101221.56
2022-08-25T17:28:17.019Z,101227.94
2022-08-25T17:30:44.310Z,101229.97
2022-08-25T17:33:12.417Z,101231.75
2022-08-25T17:35:44.380Z,101233.31
2022-08-25T17:38:12.262Z,101236.66
2022-08-25T17:40:39.421Z,101230.47
2022-08-25T17:43:09.086Z,101232.97
2022-08-25T17:45:36.600Z,101227.78
2022-08-25T17:48:03.713Z,101232.53
2022-08-25T17:50:31.784Z,101230.22
2022-08-25T17:53:01.203Z,101224.28
2022-08-25T17:55:27.980Z,101227.03
2022-08-25T17:57:54.805Z,101226.91
2022-08-25T18:00:22.188Z,101222.59
2022-08-25T18:02:49.114Z,101229.50
2022-08-25T18:05:17.659Z,101231.81
2022-08-25T18:07:45.491Z,101234.84
2022-08-25T18:10:12.779Z,101241.09
2022-08-25T18:12:40.028Z,101241.84
2022-08-25T18:15:08.193Z,101242.69
2022-08-25T18:17:35.910Z,101249.59
2022-08-25T18:20:06.109Z,101244.72
2022-08-25T18:22:33.318Z,101248.50
2022-08-25T18:25:00.334Z,101247.47
2022-08-25T18:27:28.340Z,101249.22
2022-08-25T18:29:56.072Z,101254.78
2022-08-25T18:32:25.958Z,101257.81
2022-08-25T18:34:54.439Z,101260.84
2022-08-25T18:37:40.233Z,101254.50
2022-08-25T18:40:22.880Z,101261.69
2022-08-25T18:42:58.274Z,101265.31
2022-08-25T18:45:49.664Z,101265.56
2022-08-25T18:48:19.972Z,101264.25
2022-08-25T18:50:50.661Z,101271.03
2022-08-25T18:53:19.457Z,101269.72
2022-08-25T18:55:58.239Z,101272.03
2022-08-25T18:58:26.024Z,101271.56
2022-08-25T19:00:52.852Z,101274.84
2022-08-25T19:03:22.475Z,101271.81
2022-08-25T19:05:57.158Z,101281.56
2022-08-25T19:08:24.568Z,101279.13
2022-08-25T19:10:52.976Z,101276.94
2022-08-25T19:13:22.801Z,101276.59
2022-08-25T19:15:51.345Z,101271.69
2022-08-25T19:18:19.125Z,101273.84
2022-08-25T19:20:52.995Z,101279.72
2022-08-25T19:23:20.108Z,101271.06
2022-08-25T19:25:46.948Z,101290.47
2022-08-25T19:28:14.261Z,101279.25
2022-08-25T19:30:50.228Z,101277.50
2022-08-25T19:33:42.338Z,101281.63
2022-08-25T19:36:08.743Z,101286.59
2022-08-25T19:38:36.204Z,101277.09
2022-08-25T19:41:10.645Z,101287.41
2022-08-25T19:43:55.457Z,101279.75
2022-08-25T19:46:32.728Z,101281.03
2022-08-25T19:49:14.410Z,101278.84
2022-08-25T19:51:44.710Z,101281.94
2022-08-25T19:54:13.627Z,101277.75
2022-08-25T19:56:53.821Z,101288.09
2022-08-25T19:59:42.669Z,101283.28
2022-08-25T20:02:18.641Z,101281.84
2022-08-25T20:04:49.506Z,101276.91
2022-08-25T20:07:23.620Z,101286.94
2022-08-25T20:09:51.830Z,101280.88
2022-08-25T20:12:20.379Z,101280.50
2022-08-25T20:14:48.846Z,101277.16
2022-08-25T20:17:24.598Z,101280.41
2022-08-25T20:19:58.409Z,101277.97
2022-08-25T20:22:30.656Z,101274.75
2022-08-25T20:25:00.547Z,101278.75
2022-08-25T20:27:33.089Z,101280.72
2022-08-25T20:30:02.769Z,101278.53
2022-08-25T20:32:31.703Z,101277.16
2022-08-25T20:34:58.504Z,101281.75
2022-08-25T20:37:25.922Z,101274.72
2022-08-25T20:39:53.070Z,101270.66
2022-08-25T20:42:20.288Z,101280.66
2022-08-25T20:44:47.274Z,101269.19
2022-08-25T20:47:15.502Z,101270.44
2022-08-25T20:49:44.061Z,101259.16
2022-08-25T20:52:12.103Z,101263.75
2022-08-25T20:54:40.400Z,101263.13
2022-08-25T20:57:08.138Z,101263.53
2022-08-25T20:59:35.080Z,101259.94
2022-08-25T21:02:02.312Z,101258.44
2022-08-25T21:04:30.612Z,101257.66
2022-08-25T21:07:00.329Z,101259.66
2022-08-25T21:09:28.325Z,101250.88
2022-08-25T21:11:57.040Z,101251.25
2022-08-25T21:14:24.969Z,101256.84
2022-08-25T21:16:53.308Z,101251.41
2022-08-25T21:19:26.317Z,101260.94
2022-08-25T21:21:54.146Z,101255.25
2022-08-25T21:24:26.609Z,101256.50
2022-08-25T21:26:56.074Z,101254.00
2022-08-25T21:29:24.660Z,101252.25
2022-08-25T21:31:51.808Z,101258.81
2022-08-25T21:34:20.053Z,101252.75
2022-08-25T21:36:47.999Z,101253.00
2022-08-25T21:39:15.257Z,101252.28
2022-08-25T21:41:44.409Z,101255.13
2022-08-25T21:44:13.829Z,101251.13
2022-08-25T21:46:41.333Z,101252.16
2022-08-25T21:49:08.766Z,101248.69
2022-08-25T21:51:40.789Z,101246.19
2022-08-25T21:54:10.441Z,101247.19
2022-08-25T21:56:55.602Z,101239.16
2022-08-25T21:59:28.843Z,101243.97
2022-08-25T22:01:57.565Z,101240.47
2022-08-25T22:04:24.996Z,101242.34
2022-08-25T22:06:52.001Z,101243.31
2022-08-25T22:09:18.708Z,101242.81
2022-08-25T22:11:46.482Z,101243.94
2022-08-25T22:14:15.039Z,101241.06
2022-08-25T22:16:42.682Z,101235.78
2022-08-25T22:19:11.840Z,101235.16
2022-08-25T22:21:42.270Z,101229.94
2022-08-25T22:24:09.204Z,101227.22
2022-08-25T22:26:36.283Z,101228.47
2022-08-25T22:29:04.378Z,101230.44
2022-08-25T22:31:33.521Z,101225.84
2022-08-25T22:34:00.646Z,101226.84
2022-08-25T22:36:32.793Z,101226.13
2022-08-25T22:38:59.915Z,101225.13
2022-08-25T22:41:29.253Z,101221.53
2022-08-25T22:43:56.895Z,101224.25
2022-08-25T22:46:26.095Z,101223.28
2022-08-25T22:48:55.413Z,101219.56
2022-08-25T22:51:27.500Z,101224.78
2022-08-25T22:53:54.808Z,101217.47
2022-08-25T22:56:32.962Z,101221.91
2022-08-25T22:59:03.309Z,101218.09
2022-08-25T23:01:32.109Z,101216.25
2022-08-25T23:04:00.739Z,101207.97
2022-08-25T23:06:29.067Z,101206.97
2022-08-25T23:08:56.388Z,101210.16
2022-08-25T23:11:24.386Z,101206.84
2022-08-25T23:13:54.806Z,101206.09
2022-08-25T23:16:22.375Z,101206.09
2022-08-25T23:18:49.158Z,101208.09
2022-08-25T23:21:38.009Z,101205.47
2022-08-25T23:24:12.109Z,101202.88
2022-08-25T23:26:42.021Z,101193.00
2022-08-25T23:29:18.339Z,101191.25
2022-08-25T23:31:47.681Z,101199.78
2022-08-25T23:34:15.770Z,101197.94
2022-08-25T23:36:43.407Z,101195.47
2022-08-25T23:39:13.772Z,101194.47
2022-08-25T23:41:40.608Z,101194.63
2022-08-25T23:44:09.393Z,101191.00
2022-08-25T23:46:39.713Z,101191.38
2022-08-25T23:49:08.386Z,101187.91
2022-08-25T23:51:38.325Z,101190.53
2022-08-25T23:54:09.195Z,101182.47
2022-08-25T23:56:42.331Z,101173.31
2022-08-25T23:59:11.980Z,101168.03
